Aérodrome :
LOGIN :

S'inscrire | Disclaimer

   EN    FR    IT 

 










Légende :    VFR   VFR Marginal   IFR   IFR Intensif   IFR Très Intensif
Visi : 
Plafond : 
>= 8 km
>= 3000ft
5 à 8 km
1000 à 3000 ft
1500m à 5 km
500 à 1000 ft
800 à 1500m
200 à 500 ft
< 800m
< 200 ft
Symboles :   Orages  Brouillard  Fortes neiges  Fortes précipitations  Vent > 20 kt
SIGMETs :   Divers  Orages  Givrage  Turbulence  Onde Orograph.  Cendres Volcan.







- Altitude de l'aérodrome : 147 ft
- Code IATA : DUS


EDDL - Düsseldorf Int.

DERNIER METAR :
  • 181550Z 27015KT 9999 -RA FEW018 BKN038 06/01 Q1001 BECMG 28010KT

METARs EXPIRÉS :
  • 181520Z 27017KT 9999 FEW018 BKN042 06/01 Q1001 BECMG 28010KT
  • 181450Z 27021G32KT 9999 FEW014 SCT028 BKN046 06/01 Q1000 BECMG 28010KT
  • 181420Z 26019KT 9999 -RA FEW010 SCT018 BKN028 06/02 Q1000 BECMG 28010KT
  • 181350Z 27017G27KT 9999 -RA FEW010 SCT018 BKN036 05/03 Q0999 BECMG 28010KT
  • 181320Z 27020G30KT 240V300 9999 -RA FEW010 BKN018 05/03 Q0999 BECMG 28015G25KT

TAF TAF EDDL
Valide du 18 à 12h jusqu'au 19 à 18h UTC


181100Z 1812/1918 26030G45KT 9999 SCT040
PROB30
TEMPO 1812/1814 26040G60KT
BECMG 1814/1817 26015G25KT
BECMG 1817/1820 24010KT
TEMPO 1900/1910 4500 SHRAGS BKN008CB
PROB30
TEMPO 1910/1915 24015G25KT
Pas de NOTAMs connus pour ce terrain.
1 SIGMET publié pour la FIR Langen (EDGG) :
 
Turbulence forte
EDGG SIGMET 5 VALID 181500/181700 EDZF
EDGG LANGEN FIR SEV TURB FCST NE OF LINE N4920 E01045 - N5215 E00740 SFC/FL060 MOV E 30KT NC=



MET'MAP, la Météo Aéronautique d'un coup d'oeil ! - Copyright ORBIFLY Décembre 2007 - Disclaimer

ORBIFLY MET'MAP TEAM :

Programmation & Développement : Alexandra Zaïnal
Conception & Développement : Baudouin d'Aumeries
Co-Programmation & Développement : Marc-Olivier Méhu
Soutien technique & logistique : Manuel Goepfert

Contact : metmap@orbifly.com




SOURCES & CREDITS :

   NOAA